| time (UTC) | temp F | wind direction | speed knots | gust knots | rain 1hr in | rain 24hr in | rain mn in | humidity % | barometer mb |
| 20260507024754 | 57 | 0.0 | 0.0 | 0.00 | 0.00 | 0.00 | 66 | 1006.8 | |
| 20260507023753 | 57 | 0.0 | 0.0 | 0.00 | 0.00 | 0.00 | 66 | 1006.8 | |
| 20260507022754 | 57 | 0.0 | 0.0 | 0.00 | 0.00 | 0.00 | 66 | 1006.8 | |
| 20260507021754 | 57 | 0.0 | 0.0 | 0.00 | 0.00 | 0.00 | 67 | 1006.8 | |
| 20260507020754 | 57 | 0.0 | 0.0 | 0.00 | 0.00 | 0.00 | 67 | 1006.8 | |
| 20260507015753 | 57 | 0.0 | 0.0 | 0.00 | 0.00 | 0.00 | 67 | 1006.8 | |
| 20260507014602 | 57 | 0.0 | 0.0 | 0.00 | 0.00 | 0.00 | 67 | 1006.8 | |
| 20260507013602 | 57 | 0.0 | 0.0 | 0.00 | 0.00 | 0.00 | 67 | 1006.8 | |
| 20260507012602 | 57 | 0.0 | 0.0 | 0.00 | 0.00 | 0.00 | 67 | 1005.8 | |
| 20260507011602 | 57 | 0.0 | 0.0 | 0.00 | 0.00 | 0.00 | 67 | 1005.8 | |
| 20260507010602 | 57 | 0.0 | 0.0 | 0.00 | 0.00 | 0.00 | 67 | 1006.8 | |
| 20260507005602 | 58 | 0.0 | 0.0 | 0.00 | 0.00 | 0.00 | 67 | 1006.8 | |
| 20260507004602 | 58 | 0.0 | 0.0 | 0.00 | 0.00 | 0.00 | 67 | 1006.8 | |
| 20260507003411 | 58 | 0.0 | 0.0 | 0.00 | 0.00 | 0.00 | 67 | 1006.8 | |
| 20260507002411 | 58 | 0.0 | 0.0 | 0.00 | 0.00 | 0.00 | 67 | 1006.8 | |
| 20260507001411 | 58 | 0.0 | 0.0 | 0.00 | 0.00 | 0.00 | 67 | 1005.8 | |
| 20260507000220 | 58 | 0.0 | 0.0 | 0.00 | 0.00 | 0.00 | 66 | 1006.8 | |
| 20260506235220 | 58 | 0.0 | 0.0 | 0.00 | 0.00 | 0.00 | 66 | 1006.8 | |
| 20260506234220 | 58 | 0.0 | 0.0 | 0.00 | 0.00 | 0.00 | 66 | 1005.8 | |
| 20260506233220 | 58 | 0.0 | 0.0 | 0.00 | 0.00 | 0.00 | 66 | 1005.8 | |
| 20260506232220 | 58 | 0.0 | 0.0 | 0.00 | 0.00 | 0.00 | 66 | 1005.8 | |
| 20260506231220 | 58 | 0.0 | 0.0 | 0.00 | 0.00 | 0.00 | 66 | 1005.8 | |
| 20260506230028 | 58 | 0.0 | 0.0 | 0.00 | 0.00 | 0.00 | 66 | 1005.8 | |
| 20260506225029 | 58 | 0.0 | 0.0 | 0.00 | 0.00 | 0.00 | 66 | 1005.8 | |
| 20260506223837 | 58 | 0.0 | 0.0 | 0.00 | 0.00 | 0.00 | 66 | 1005.8 | |
| 20260506222837 | 58 | 0.0 | 0.0 | 0.00 | 0.00 | 0.00 | 66 | 1006.8 | |
| 20260506221837 | 58 | 0.0 | 0.0 | 0.00 | 0.00 | 0.00 | 66 | 1006.8 | |
| 20260506220837 | 59 | 0.0 | 0.0 | 0.00 | 0.00 | 0.00 | 66 | 1005.8 | |
| 20260506215837 | 59 | 0.0 | 0.0 | 0.00 | 0.00 | 0.00 | 66 | 1005.8 | |
| 20260506214837 | 59 | 0.0 | 0.0 | 0.00 | 0.00 | 0.00 | 66 | 1005.8 | |
| 20260506213837 | 59 | 0.0 | 0.0 | 0.00 | 0.00 | 0.00 | 66 | 1005.8 | |
| 20260506212837 | 59 | 0.0 | 0.0 | 0.00 | 0.00 | 0.00 | 66 | 1005.8 | |
| 20260506211646 | 59 | 0.0 | 0.0 | 0.00 | 0.00 | 0.00 | 66 | 1005.8 | |
| 20260506210646 | 59 | 0.0 | 0.0 | 0.00 | 0.00 | 0.00 | 65 | 1005.8 | |
| 20260506205646 | 59 | 0.0 | 0.0 | 0.00 | 0.00 | 0.00 | 65 | 1005.8 | |
| 20260506204646 | 59 | 0.0 | 0.0 | 0.00 | 0.00 | 0.00 | 65 | 1005.8 | |
| 20260506203455 | 60 | 0.0 | 0.0 | 0.00 | 0.00 | 0.00 | 64 | 1005.8 | |
| 20260506202455 | 60 | 0.0 | 0.0 | 0.00 | 0.00 | 0.00 | 64 | 1005.8 | |
| 20260506201455 | 60 | 0.0 | 0.0 | 0.00 | 0.00 | 0.00 | 64 | 1005.8 | |
| 20260506200455 | 60 | 0.0 | 0.0 | 0.00 | 0.00 | 0.00 | 64 | 1005.8 | |
| 20260506195455 | 60 | 0.0 | 0.0 | 0.00 | 0.00 | 0.00 | 64 | 1004.7 | |
| 20260506194455 | 60 | 0.0 | 0.0 | 0.00 | 0.00 | 0.00 | 64 | 1004.7 | |
| 20260506193455 | 61 | 0.0 | 0.0 | 0.00 | 0.00 | 0.00 | 64 | 1004.7 | |
| 20260506192305 | 61 | 0.0 | 0.0 | 0.00 | 0.00 | 0.00 | 64 | 1004.7 | |
| 20260506191303 | 61 | 0.0 | 0.0 | 0.00 | 0.00 | 0.00 | 64 | 1003.7 | |
| 20260506190112 | 61 | 0.0 | 0.0 | 0.00 | 0.00 | 0.00 | 64 | 1003.7 | |
| 20260506185112 | 62 | 0.0 | 0.0 | 0.00 | 0.00 | 0.00 | 63 | 1003.7 | |
| 20260506184112 | 62 | 0.0 | 0.0 | 0.00 | 0.00 | 0.00 | 64 | 1003.7 | |
| 20260506183112 | 62 | 0.0 | 0.0 | 0.00 | 0.00 | 0.00 | 63 | 1003.7 | |
| 20260506182112 | 62 | 0.0 | 0.0 | 0.00 | 0.00 | 0.00 | 62 | 1003.7 | |
| 20260506181112 | 62 | 0.0 | 0.0 | 0.00 | 0.00 | 0.00 | 62 | 1003.7 | |
| 20260506180112 | 62 | 0.0 | 0.0 | 0.00 | 0.00 | 0.00 | 62 | 1003.7 | |
| 20260506175112 | 63 | 0.0 | 0.0 | 0.00 | 0.00 | 0.00 | 61 | 1003.7 | |
| 20260506174112 | 63 | 0.0 | 0.0 | 0.00 | 0.00 | 0.00 | 61 | 1003.7 | |
| 20260506172920 | 63 | 0.0 | 0.0 | 0.00 | 0.00 | 0.00 | 61 | 1002.6 | |
| 20260506171729 | 63 | 0.0 | 0.0 | 0.00 | 0.00 | 0.00 | 61 | 1002.6 | |
| 20260506170729 | 63 | 0.0 | 0.0 | 0.00 | 0.00 | 0.00 | 61 | 1002.6 | |
| 20260506165729 | 63 | 0.0 | 0.0 | 0.00 | 0.00 | 0.00 | 62 | 1002.6 | |
| 20260506164729 | 64 | 0.0 | 0.0 | 0.00 | 0.00 | 0.00 | 62 | 1001.6 | |
| 20260506163729 | 64 | 0.0 | 0.0 | 0.00 | 0.00 | 0.00 | 60 | 1001.6 | |
| 20260506162538 | 64 | 0.0 | 0.0 | 0.00 | 0.00 | 0.00 | 56 | 1001.6 | |
| 20260506161538 | 64 | 0.0 | 0.0 | 0.00 | 0.00 | 0.00 | 57 | 1001.6 | |
| 20260506160538 | 64 | 0.0 | 0.0 | 0.00 | 0.00 | 0.00 | 58 | 1001.6 | |
| 20260506155538 | 65 | 0.0 | 0.0 | 0.00 | 0.00 | 0.00 | 59 | 1001.6 | |
| 20260506154538 | 69 | 0.0 | 0.0 | 0.00 | 0.00 | 0.00 | 57 | 1001.6 | |
| 20260506153346 | 68 | 0.0 | 0.0 | 0.00 | 0.00 | 0.00 | 57 | 1001.6 | |
| 20260506152347 | 66 | 0.0 | 0.0 | 0.00 | 0.00 | 0.00 | 59 | 1001.6 | |
| 20260506151347 | 67 | 0.0 | 0.0 | 0.00 | 0.00 | 0.00 | 58 | 1001.6 | |
| 20260506150346 | 67 | 0.0 | 0.0 | 0.00 | 0.00 | 0.00 | 57 | 1001.6 | |
| 20260506140021 | 70 | 0.0 | 0.0 | 0.00 | 0.00 | 0.00 | 53 | 1002.6 | |
| 20260506134639 | 71 | 0.0 | 0.0 | 0.00 | 0.00 | 0.00 | 53 | 1002.6 | |
| 20260506133639 | 71 | 0.0 | 0.0 | 0.00 | 0.00 | 0.00 | 53 | 1002.6 | |
| 20260506132639 | 72 | 0.0 | 0.0 | 0.00 | 0.00 | 0.00 | 54 | 1002.6 | |
| 20260506131639 | 72 | 0.0 | 0.0 | 0.00 | 0.00 | 0.00 | 54 | 1002.6 | |
| 20260506130639 | 71 | 0.0 | 0.0 | 0.00 | 0.00 | 0.00 | 56 | 1002.6 | |
| 20260506125638 | 71 | 0.0 | 0.0 | 0.00 | 0.00 | 0.00 | 56 | 1002.6 | |
| 20260506124639 | 71 | 0.0 | 0.0 | 0.00 | 0.00 | 0.00 | 56 | 1002.6 | |
| 20260506123639 | 71 | 0.0 | 0.0 | 0.00 | 0.00 | 0.00 | 56 | 1002.6 | |
| 20260506122447 | 70 | 0.0 | 0.0 | 0.00 | 0.00 | 0.00 | 59 | 1002.6 | |
| 20260506121448 | 68 | 0.0 | 0.0 | 0.00 | 0.00 | 0.00 | 60 | 1002.6 | |
| 20260506120447 | 68 | 0.0 | 0.0 | 0.00 | 0.00 | 0.00 | 62 | 1002.6 | |
| 20260506115256 | 69 | 0.0 | 0.0 | 0.00 | 0.00 | 0.00 | 62 | 1002.6 | |
| 20260506114256 | 68 | 0.0 | 0.0 | 0.00 | 0.00 | 0.00 | 65 | 1002.6 | |
| 20260506113256 | 67 | 0.0 | 0.0 | 0.00 | 0.00 | 0.00 | 66 | 1002.6 | |
| 20260506112256 | 65 | 0.0 | 0.0 | 0.00 | 0.00 | 0.00 | 70 | 1002.6 | |
| 20260506111256 | 64 | 0.0 | 0.0 | 0.00 | 0.00 | 0.00 | 70 | 1002.6 | |
| 20260506110105 | 64 | 0.0 | 0.0 | 0.00 | 0.00 | 0.00 | 73 | 1002.6 | |
| 20260506105105 | 64 | 0.0 | 0.0 | 0.00 | 0.00 | 0.00 | 75 | 1002.6 | |
| 20260506104105 | 62 | 0.0 | 0.0 | 0.00 | 0.00 | 0.00 | 78 | 1002.6 | |
| 20260506103105 | 59 | 0.0 | 0.0 | 0.00 | 0.00 | 0.00 | 81 | 1002.6 | |
| 20260506102105 | 58 | 0.0 | 0.0 | 0.00 | 0.00 | 0.00 | 84 | 1002.6 | |
| 20260506101105 | 56 | 0.0 | 0.0 | 0.00 | 0.00 | 0.00 | 88 | 1002.6 | |
| 20260506100105 | 55 | 0.0 | 0.0 | 0.00 | 0.00 | 0.00 | 90 | 1002.6 | |
| 20260506095105 | 55 | 0.0 | 0.0 | 0.00 | 0.00 | 0.00 | 90 | 1002.6 | |
| 20260506093914 | 56 | 0.0 | 0.0 | 0.00 | 0.00 | 0.00 | 91 | 1001.6 | |
| 20260506092914 | 56 | 0.0 | 0.0 | 0.00 | 0.00 | 0.00 | 91 | 1001.6 | |
| 20260506091914 | 56 | 0.0 | 0.0 | 0.00 | 0.00 | 0.00 | 90 | 1001.6 | |
| 20260506090914 | 56 | 0.0 | 0.0 | 0.00 | 0.00 | 0.00 | 90 | 1001.6 | |
| 20260506085914 | 56 | 0.0 | 0.0 | 0.00 | 0.00 | 0.00 | 90 | 1001.6 | |
| 20260506084723 | 56 | 0.0 | 0.0 | 0.00 | 0.00 | 0.00 | 89 | 1001.6 | |
| 20260506083531 | 56 | 0.0 | 0.0 | 0.00 | 0.00 | 0.00 | 88 | 1001.6 | |
| 20260506082531 | 56 | 0.0 | 0.0 | 0.00 | 0.00 | 0.00 | 88 | 1002.6 | |
| 20260506081531 | 56 | 0.0 | 0.0 | 0.00 | 0.00 | 0.00 | 88 | 1002.6 | |
| 20260506080531 | 56 | 0.0 | 0.0 | 0.00 | 0.00 | 0.00 | 87 | 1002.6 | |
| 20260506072531 | 56 | 0.0 | 0.0 | 0.00 | 0.00 | 0.00 | 86 | 1002.6 | |
| 20260506071340 | 56 | 0.0 | 0.0 | 0.00 | 0.00 | 0.00 | 86 | 1002.6 | |
| 20260506070339 | 56 | 0.0 | 0.0 | 0.00 | 0.00 | 0.00 | 86 | 1002.6 | |
| 20260506062340 | 56 | 0.0 | 0.0 | 0.00 | 0.00 | 0.00 | 83 | 1002.6 | |
| 20260506061340 | 56 | 0.0 | 0.0 | 0.00 | 0.00 | 0.00 | 83 | 1002.6 | |
| 20260506060148 | 56 | 0.0 | 0.0 | 0.00 | 0.00 | 0.00 | 83 | 1003.7 | |
| 20260506050957 | 55 | 0.0 | 0.0 | 0.00 | 0.00 | 0.00 | 82 | 1003.7 | |
| 20260506044806 | 56 | 0.0 | 0.0 | 0.00 | 0.00 | 0.00 | 81 | 1003.7 | |
| 20260506043806 | 56 | 0.0 | 0.0 | 0.00 | 0.00 | 0.00 | 81 | 1003.7 | |
| 20260506042806 | 56 | 0.0 | 0.0 | 0.00 | 0.00 | 0.00 | 80 | 1003.7 | |
| 20260506041806 | 56 | 0.0 | 0.0 | 0.00 | 0.00 | 0.00 | 80 | 1003.7 | |
| 20260506040806 | 56 | 0.0 | 0.0 | 0.00 | 0.00 | 0.00 | 79 | 1003.7 | |
| 20260506035806 | 56 | 0.0 | 0.0 | 0.00 | 0.00 | 0.00 | 79 | 1003.7 | |
| 20260506034806 | 56 | 0.0 | 0.0 | 0.00 | 0.00 | 0.00 | 79 | 1003.7 | |
| 20260506033614 | 56 | 0.0 | 0.0 | 0.00 | 0.00 | 0.00 | 79 | 1003.7 | |
| 20260506032615 | 56 | 0.0 | 0.0 | 0.00 | 0.00 | 0.00 | 80 | 1003.7 | |
| 20260506031614 | 56 | 0.0 | 0.0 | 0.00 | 0.00 | 0.00 | 80 | 1004.7 | |
| 20260506030614 | 56 | 0.0 | 0.0 | 0.00 | 0.00 | 0.00 | 80 | 1004.7 | |
| 20260506025614 | 56 | 0.0 | 0.0 | 0.00 | 0.00 | 0.00 | 80 | 1004.7 |